DW7093 Weather Reports


Display with metric or nautical units.
time (UTC)temp
F
wind
direction
speed
MPH
gust
MPH
rain 1hr
in
rain 24hr
in
rain mn
in
humidity
%
barometer
mb
20190717043026 73 159 0.0 0.0 0.00 0.19 0.00 92 1010.8
20190717041513 73 159 0.0 1.0 0.00 0.19 0.00 92 1010.9
20190717040034 73 159 0.0 5.0 0.00 0.19 0.00 91 1011.2
20190717034539 73 161 0.0 5.0 0.00 0.19 0.19 91 1011.4
20190717033046 73 161 0.0 3.0 0.00 0.19 0.19 91 1011.5
20190717031512 73 161 0.0 0.0 0.00 0.19 0.19 91 1011.6
20190717030018 73 161 0.0 0.0 0.00 0.19 0.19 89 1011.8
20190717024512 73 161 0.0 1.0 0.00 0.19 0.19 88 1011.8
20190717023013 73 161 0.0 2.0 0.00 0.19 0.19 87 1011.8
20190717021520 73 161 0.0 2.0 0.00 0.19 0.19 86 1011.7
20190717020031 73 161 0.0 5.0 0.00 0.19 0.19 85 1011.5
20190717014504 73 178 0.0 3.0 0.00 0.19 0.19 85 1011.3
20190717013010 73 150 0.0 5.0 0.00 0.19 0.19 83 1011.2
20190717011510 73 164 0.0 5.0 0.00 0.19 0.19 83 1011.1
20190717010006 74 160 0.0 3.0 0.00 0.19 0.19 82 1011.0
20190717004503 74 141 0.0 3.0 0.00 0.19 0.19 82 1011.1
20190717003002 74 234 0.0 7.0 0.00 0.19 0.19 82 1011.1
20190717001504 74 258 0.0 6.0 0.00 0.19 0.19 82 1011.0
20190717000214 74 154 3.0 7.0 0.01 0.19 0.19 81 1011.0
20190716234724 75 212 3.0 10.0 0.16 0.19 0.19 81 1011.1
20190716233201 75 155 2.0 10.0 0.16 0.19 0.19 79 1011.4
20190716231652 76 159 3.0 6.0 0.16 0.19 0.19 79 1011.3
20190716230210 77 160 1.0 9.0 0.15 0.18 0.18 75 1011.2
20190716224625 81 193 2.0 7.0 0.00 0.03 0.03 66 1010.9
20190716223224 84 360 0.0 4.0 0.00 0.03 0.03 65 1010.3
20190716221733 84 360 0.0 6.0 0.00 0.03 0.03 63 1010.4
20190716220147 85 227 0.0 2.0 0.00 0.03 0.03 61 1010.5
20190716214619 86 153 2.0 8.0 0.00 0.03 0.03 59 1010.6
20190716213201 85 163 4.0 9.0 0.00 0.03 0.03 61 1010.6
20190716211627 85 121 1.0 8.0 0.00 0.03 0.03 61 1010.7
20190716210239 84 360 1.0 5.0 0.00 0.03 0.03 64 1010.8
20190716204634 83 225 0.0 3.0 0.00 0.03 0.03 64 1010.9
20190716203123 84 360 0.0 5.0 0.00 0.03 0.03 63 1010.9
20190716201738 85 154 2.0 7.0 0.00 0.03 0.03 64 1011.2
20190716200140 83 240 0.0 4.0 0.00 0.03 0.03 65 1011.5
20190716194709 84 284 1.0 6.0 0.00 0.03 0.03 63 1011.7
20190716193129 84 360 2.0 8.0 0.00 0.03 0.03 63 1011.8
20190716191652 85 286 1.0 7.0 0.00 0.03 0.03 65 1012.0
20190716190057 84 134 3.0 8.0 0.00 0.03 0.03 65 1012.2
20190716184549 83 265 1.0 4.0 0.00 0.03 0.03 66 1012.4
20190716183041 82 360 2.0 7.0 0.00 0.03 0.03 68 1012.4
20190716181618 82 155 3.0 11.0 0.00 0.03 0.03 66 1012.7
20190716180050 82 140 8.0 15.0 0.00 0.03 0.03 67 1012.9
20190716174530 83 144 6.0 11.0 0.00 0.03 0.03 68 1012.8
20190716173036 81 360 1.0 6.0 0.00 0.03 0.03 72 1013.2
20190716171517 80 360 1.0 6.0 0.00 0.03 0.03 69 1013.5
20190716170025 80 360 1.0 6.0 0.00 0.03 0.03 71 1013.7
20190716164513 79 159 3.0 9.0 0.00 0.03 0.03 71 1013.9
20190716163037 78 138 0.0 8.0 0.00 0.03 0.03 73 1013.8
20190716161544 79 360 1.0 5.0 0.00 0.03 0.03 72 1013.9
20190716160014 79 150 4.0 9.0 0.00 0.03 0.03 71 1013.9
20190716154519 79 360 2.0 10.0 0.00 0.03 0.03 72 1013.9
20190716153007 79 360 1.0 5.0 0.00 0.03 0.03 73 1013.7
20190716151506 77 273 1.0 6.0 0.00 0.03 0.03 75 1013.7
20190716150340 77 360 2.0 6.0 0.00 0.03 0.03 76 1013.7
20190716144740 76 360 1.0 6.0 0.00 0.03 0.03 77 1013.9
20190716143227 76 360 0.0 5.0 0.01 0.03 0.03 78 1013.9
20190716141717 75 157 0.0 5.0 0.01 0.03 0.03 79 1014.0
20190716140149 74 360 1.0 5.0 0.01 0.03 0.03 79 1014.0
20190716134626 74 360 0.0 6.0 0.01 0.03 0.03 78 1014.3
20190716133131 74 360 2.0 5.0 0.00 0.02 0.02 78 1014.3
20190716131620 74 360 1.0 8.0 0.00 0.02 0.02 78 1014.1
20190716130201 74 360 0.0 8.0 0.00 0.02 0.02 78 1014.0
20190716124639 74 360 1.0 5.0 0.00 0.02 0.02 78 1014.0
20190716123141 73 202 4.0 9.0 0.00 0.02 0.02 78 1013.7
20190716121658 73 155 2.0 10.0 0.00 0.02 0.02 78 1013.8
20190716120139 73 360 3.0 9.0 0.00 0.02 0.02 78 1013.8
20190716114612 73 360 1.0 6.0 0.00 0.02 0.02 79 1013.9
20190716113056 73 173 2.0 8.0 0.00 0.02 0.02 80 1014.0
20190716111628 73 167 1.0 6.0 0.00 0.02 0.02 81 1014.1
20190716110154 73 163 1.0 6.0 0.00 0.02 0.02 83 1014.0
20190716104641 73 360 1.0 6.0 0.00 0.02 0.02 84 1014.0
20190716103105 72 360 0.0 4.0 0.00 0.02 0.02 87 1014.0
20190716101742 72 184 1.0 4.0 0.00 0.02 0.02 88 1013.9
20190716100056 72 180 0.0 3.0 0.00 0.02 0.02 88 1014.0
20190716094632 71 209 0.0 0.0 0.00 0.02 0.02 88 1014.1
20190716093105 71 209 0.0 0.0 0.00 0.02 0.02 87 1014.2
20190716091558 71 209 0.0 0.0 0.00 0.02 0.02 87 1014.3
20190716090120 71 209 0.0 0.0 0.01 0.02 0.02 86 1014.2
20190716084649 71 209 0.0 0.0 0.01 0.02 0.02 84 1014.1
20190716083156 71 209 0.0 0.0 0.01 0.02 0.02 82 1014.2
20190716081534 71 209 0.0 0.0 0.01 0.02 0.02 81 1014.2
20190716080048 72 209 0.0 0.0 0.01 0.01 0.01 80 1014.4
20190716074548 72 209 0.0 0.0 0.01 0.01 0.01 78 1014.6
20190716073050 72 209 0.0 0.0 0.01 0.01 0.01 77 1014.6
20190716071540 73 360 0.0 0.0 0.01 0.01 0.01 76 1014.7
20190716070027 74 360 0.0 2.0 0.00 0.00 0.00 73 1015.0
20190716064602 73 360 0.0 0.0 0.00 0.00 0.00 73 1015.0
20190716063027 73 209 0.0 1.0 0.00 0.00 0.00 74 1015.1
20190716061533 73 360 0.0 3.0 0.00 0.00 0.00 75 1015.3
20190716060042 73 360 0.0 2.0 0.00 0.00 0.00 76 1015.3
20190716054530 72 360 0.0 2.0 0.00 0.00 0.00 79 1015.7
20190716053031 72 360 0.0 0.0 0.00 0.00 0.00 83 1015.8
20190716051526 71 360 0.0 0.0 0.00 0.00 0.00 83 1015.8
20190716050023 71 360 0.0 0.0 0.00 0.00 0.00 81 1015.8
20190716044523 71 360 0.0 0.0 0.00 0.00 0.00 80 1015.7